Time;durP1;ratioP1;P1;durP2;ratioP2;P2;SDS_P1;SDS_P2;PMS_P1;PMS_P2;Temp;Humidity;BMP_temperature;BMP_pressure;BME280_temperature;BME280_humidity;BME280_pressure;Samples;Min_cycle;Max_cycle;Signal;HPM_P1;HPM_P2
2024/03/27 00:00:13;;;;;;;19.30;15.10;;;;;;;7.33;100.00;100530.04;105938;1252;61253;-74
2024/03/27 00:02:40;;;;;;;17.00;14.00;;;;;;;7.36;100.00;100532.11;105940;1256;63921;-75
2024/03/27 00:05:07;;;;;;;19.30;13.90;;;;;;;7.39;100.00;100535.81;105746;1253;72717;-75
2024/03/27 00:07:35;;;;;;;16.00;13.60;;;;;;;7.40;100.00;100540.80;105903;1255;61826;-74
2024/03/27 00:10:02;;;;;;;17.70;12.70;;;;;;;7.40;100.00;100540.48;105947;1255;61292;-74
2024/03/27 00:12:29;;;;;;;17.00;14.30;;;;;;;7.37;100.00;100542.02;105858;1251;74650;-74
2024/03/27 00:14:58;;;;;;;17.80;14.20;;;;;;;7.36;100.00;100545.54;105752;1255;63848;-74
2024/03/27 00:17:25;;;;;;;17.80;13.60;;;;;;;7.34;100.00;100549.45;105796;1254;72752;-71
2024/03/27 00:19:53;;;;;;;16.90;13.60;;;;;;;7.30;100.00;100552.23;105947;1256;61342;-72
2024/03/27 00:22:19;;;;;;;17.50;14.40;;;;;;;7.25;100.00;100549.54;105796;1256;61237;-72
2024/03/27 00:24:47;;;;;;;19.90;13.50;;;;;;;7.20;100.00;100552.73;105886;1255;75324;-73
2024/03/27 00:27:13;;;;;;;18.60;14.20;;;;;;;7.16;100.00;100554.96;105821;1256;63644;-74
2024/03/27 00:29:40;;;;;;;16.10;13.00;;;;;;;7.10;100.00;100560.31;105891;1253;70071;-74
2024/03/27 00:32:07;;;;;;;20.00;14.20;;;;;;;7.04;100.00;100558.98;105834;1255;61869;-73
2024/03/27 00:34:34;;;;;;;16.80;13.90;;;;;;;7.00;100.00;100563.39;105744;1253;61276;-72
2024/03/27 00:37:02;;;;;;;15.40;13.60;;;;;;;6.96;100.00;100563.02;105860;1255;73725;-73
2024/03/27 00:39:28;;;;;;;21.30;14.10;;;;;;;6.98;100.00;100566.09;105833;1255;62827;-73
2024/03/27 00:41:55;;;;;;;16.10;14.20;;;;;;;6.99;100.00;100569.48;105921;1253;72460;-74
2024/03/27 00:44:22;;;;;;;16.50;13.50;;;;;;;7.00;100.00;100569.46;105959;1256;61331;-73
2024/03/27 00:46:48;;;;;;;19.70;14.60;;;;;;;6.99;100.00;100566.57;105872;1256;60055;-74
2024/03/27 00:49:15;;;;;;;20.10;14.90;;;;;;;6.97;100.00;100561.46;105728;1254;61102;-73
2024/03/27 00:51:42;;;;;;;17.20;13.40;;;;;;;6.93;100.00;100563.01;105690;1255;64001;-73
2024/03/27 00:54:08;;;;;;;20.00;13.80;;;;;;;6.89;100.00;100572.92;105718;1252;72353;-73
2024/03/27 00:56:37;;;;;;;13.30;11.90;;;;;;;6.86;100.00;100577.07;105676;1256;61782;-73
2024/03/27 00:59:04;;;;;;;17.40;14.40;;;;;;;6.81;100.00;100578.32;105768;1255;61256;-73
2024/03/27 01:01:31;;;;;;;17.30;14.10;;;;;;;6.77;100.00;100579.52;105889;1256;74753;-73
2024/03/27 01:03:58;;;;;;;17.20;13.20;;;;;;;6.74;100.00;100578.96;105707;1253;63912;-72
2024/03/27 01:06:25;;;;;;;17.80;14.50;;;;;;;6.70;100.00;100588.52;105819;1253;72776;-74
2024/03/27 01:08:52;;;;;;;17.90;13.30;;;;;;;6.68;100.00;100587.41;105844;1255;61375;-73
2024/03/27 01:11:19;;;;;;;16.60;14.20;;;;;;;6.70;100.00;100589.61;105761;1253;61245;-75
2024/03/27 01:13:46;;;;;;;19.60;15.70;;;;;;;6.67;100.00;100590.40;105765;1251;74638;-75
2024/03/27 01:16:12;;;;;;;19.60;15.50;;;;;;;6.65;100.00;100589.11;105905;1255;61220;-73
2024/03/27 01:18:40;;;;;;;20.80;15.90;;;;;;;6.63;100.00;100589.00;105767;1252;71363;-72
2024/03/27 01:21:07;;;;;;;17.70;14.40;;;;;;;6.63;100.00;100587.98;106168;1256;61134;-72
2024/03/27 01:23:34;;;;;;;21.20;14.60;;;;;;;6.60;100.00;100588.45;106544;1256;61250;-73
2024/03/27 01:26:03;;;;;;;20.00;14.90;;;;;;;6.57;100.00;100590.65;107068;1255;74564;-73
2024/03/27 01:28:30;;;;;;;16.20;13.70;;;;;;;6.55;100.00;100594.77;106980;1255;63838;-74
2024/03/27 01:30:57;;;;;;;18.10;13.90;;;;;;;6.52;100.00;100594.37;105748;1256;71579;-74
2024/03/27 01:33:27;;;;;;;17.30;14.70;;;;;;;6.50;100.00;100597.09;105906;1256;61906;-74
2024/03/27 01:35:54;;;;;;;18.40;14.40;;;;;;;6.48;100.00;100601.66;105833;1251;61253;-73
2024/03/27 01:38:22;;;;;;;17.50;14.70;;;;;;;6.47;100.00;100602.06;105861;1255;74697;-75
2024/03/27 01:40:48;;;;;;;19.40;14.50;;;;;;;6.43;100.00;100602.40;105809;1256;63846;-73
2024/03/27 01:43:15;;;;;;;15.20;13.40;;;;;;;6.37;100.00;100605.08;105990;1253;61239;-75
2024/03/27 01:45:42;;;;;;;19.80;15.20;;;;;;;6.31;100.00;100607.61;105966;1255;61220;-75
2024/03/27 01:48:08;;;;;;;16.00;13.50;;;;;;;6.28;100.00;100613.13;105743;1253;61186;-74
2024/03/27 01:50:35;;;;;;;18.10;13.10;;;;;;;6.28;100.00;100615.02;105944;1255;74522;-73
2024/03/27 01:53:02;;;;;;;15.00;12.90;;;;;;;6.30;100.00;100618.92;105979;1255;64273;-73
2024/03/27 01:55:29;;;;;;;18.90;13.30;;;;;;;6.32;100.00;100619.55;105703;1254;72394;-76
2024/03/27 01:57:56;;;;;;;17.00;14.60;;;;;;;6.30;100.00;100616.85;105869;1256;61254;-75
2024/03/27 02:00:24;;;;;;;43.30;29.10;;;;;;;6.27;100.00;100618.70;105966;1256;61417;-74
2024/03/27 02:02:50;;;;;;;40.10;26.10;;;;;;;6.25;100.00;100617.94;105831;1257;74733;-72
2024/03/27 02:05:17;;;;;;;99.50;53.20;;;;;;;6.21;100.00;100621.55;105738;1253;63862;-75
2024/03/27 02:07:44;;;;;;;142.40;75.50;;;;;;;6.19;100.00;100627.04;105821;1253;72550;-75
2024/03/27 02:10:11;;;;;;;103.90;59.00;;;;;;;6.12;100.00;100621.57;105849;1257;61876;-73
2024/03/27 02:12:39;;;;;;;66.30;44.60;;;;;;;6.08;100.00;100628.55;105782;1251;61206;-75
2024/03/27 02:15:07;;;;;;;80.80;45.80;;;;;;;6.04;100.00;100635.09;105884;1253;73952;-72
2024/03/27 02:17:34;;;;;;;51.60;28.90;;;;;;;6.05;100.00;100632.29;105799;1255;63822;-75
2024/03/27 02:23:52;;;;;;;30.00;18.80;;;;;;;6.04;100.00;100634.40;105936;1258;62027;-74
2024/03/27 02:28:57;;;;;;;21.70;15.10;;;;;;;5.99;100.00;100633.25;102833;1294;600895;-76
2024/03/27 02:31:25;;;;;;;24.90;16.70;;;;;;;5.96;100.00;100635.26;104916;1264;60132;-75
2024/03/27 02:33:53;;;;;;;20.10;16.80;;;;;;;5.96;100.00;100638.59;104929;1264;60128;-73
2024/03/27 02:36:21;;;;;;;22.70;15.50;;;;;;;5.95;100.00;100641.38;104960;1264;71763;-75
2024/03/27 02:38:48;;;;;;;25.40;16.60;;;;;;;5.89;100.00;100643.31;104900;1264;62305;-73
2024/03/27 02:41:15;;;;;;;21.00;15.90;;;;;;;5.80;100.00;100646.63;104937;1267;71460;-72
2024/03/27 02:43:43;;;;;;;21.90;15.40;;;;;;;5.76;100.00;100648.54;104805;1268;191479;-72
2024/03/27 02:46:11;;;;;;;18.70;15.10;;;;;;;5.72;100.00;100649.88;105601;1254;59996;-73
2024/03/27 02:48:38;;;;;;;21.60;15.30;;;;;;;5.70;100.00;100652.59;105579;1259;71903;-75
2024/03/27 02:51:06;;;;;;;21.50;15.30;;;;;;;5.67;100.00;100653.38;105573;1259;63656;-74
2024/03/27 02:53:33;;;;;;;19.20;15.00;;;;;;;5.65;100.00;100653.62;105549;1257;71449;-73
2024/03/27 02:56:00;;;;;;;23.90;15.50;;;;;;;5.64;100.00;100662.84;105580;1260;61829;-74
2024/03/27 02:58:28;;;;;;;22.60;16.00;;;;;;;5.62;100.00;100664.69;105559;1254;60332;-74
2024/03/27 03:00:55;;;;;;;25.40;17.40;;;;;;;5.58;100.00;100671.23;105640;1259;73884;-74
2024/03/27 03:03:22;;;;;;;23.90;17.50;;;;;;;5.55;100.00;100679.50;105584;1255;62655;-73
2024/03/27 03:05:50;;;;;;;29.40;20.00;;;;;;;5.55;100.00;100674.83;105654;1257;71874;-76
2024/03/27 03:08:17;;;;;;;30.10;18.10;;;;;;;5.54;100.00;100680.59;105706;1256;60530;-75
2024/03/27 03:10:44;;;;;;;26.70;18.30;;;;;;;5.52;100.00;100686.41;105600;1260;60364;-75
2024/03/27 03:13:12;;;;;;;25.20;18.10;;;;;;;5.53;100.00;100684.77;105712;1253;72617;-72
2024/03/27 03:15:39;;;;;;;26.20;18.20;;;;;;;5.53;100.00;100686.15;105633;1260;63579;-73
2024/03/27 03:18:06;;;;;;;24.40;15.80;;;;;;;5.56;100.00;100692.48;105661;1257;70651;-73
2024/03/27 03:20:34;;;;;;;19.30;15.80;;;;;;;5.56;100.00;100699.25;105595;1256;60533;-74
2024/03/27 03:23:01;;;;;;;24.10;16.70;;;;;;;5.59;100.00;100699.11;105537;1259;60345;-75
2024/03/27 03:25:29;;;;;;;20.20;16.00;;;;;;;5.61;100.00;100698.19;105591;1253;72699;-74
2024/03/27 03:27:56;;;;;;;23.70;16.80;;;;;;;5.62;100.00;100694.51;105646;1259;62278;-76
2024/03/27 03:30:23;;;;;;;19.60;15.70;;;;;;;5.60;100.00;100692.13;105649;1260;73152;-73
2024/03/27 03:32:51;;;;;;;18.60;15.20;;;;;;;5.59;100.00;100696.52;105599;1257;60522;-75
2024/03/27 03:35:18;;;;;;;19.50;15.60;;;;;;;5.60;100.00;100703.77;105700;1254;60507;-74
2024/03/27 03:37:46;;;;;;;17.60;14.30;;;;;;;5.62;100.00;100706.62;105648;1254;72639;-75
2024/03/27 03:40:13;;;;;;;21.60;16.60;;;;;;;5.65;100.00;100714.88;105583;1260;62498;-74
2024/03/27 03:42:40;;;;;;;21.10;16.50;;;;;;;5.67;100.00;100715.48;105673;1258;71443;-75
2024/03/27 03:45:08;;;;;;;20.00;15.60;;;;;;;5.67;100.00;100720.85;105431;1258;60638;-73
2024/03/27 03:47:35;;;;;;;18.00;14.60;;;;;;;5.67;100.00;100718.77;105574;1254;60525;-73
2024/03/27 03:50:05;;;;;;;21.30;15.60;;;;;;;5.64;100.00;100721.13;105783;1253;73814;-75
2024/03/27 03:52:32;;;;;;;20.10;15.60;;;;;;;5.64;100.00;100727.23;105866;1251;65028;-77
2024/03/27 03:54:59;;;;;;;19.80;15.80;;;;;;;5.65;100.00;100731.15;105900;1256;71357;-76
2024/03/27 03:57:27;;;;;;;20.80;15.70;;;;;;;5.60;100.00;100731.15;105980;1256;62502;-75
2024/03/27 03:59:54;;;;;;;19.40;16.20;;;;;;;5.56;100.00;100729.23;105766;1256;60309;-74
2024/03/27 04:02:21;;;;;;;19.30;15.40;;;;;;;5.53;100.00;100726.41;105718;1257;73958;-75
2024/03/27 04:04:49;;;;;;;19.50;15.00;;;;;;;5.49;100.00;100729.52;105781;1251;62017;-74
2024/03/27 04:07:16;;;;;;;21.90;15.30;;;;;;;5.48;100.00;100729.17;105725;1252;70578;-74
2024/03/27 04:09:44;;;;;;;19.80;15.80;;;;;;;5.48;100.00;100734.05;105914;1256;61660;-73
2024/03/27 04:12:11;;;;;;;20.70;15.80;;;;;;;5.48;100.00;100738.70;106162;1253;60406;-74
2024/03/27 04:14:39;;;;;;;19.90;15.80;;;;;;;5.47;100.00;100739.62;105842;1251;73896;-74
2024/03/27 04:17:06;;;;;;;20.70;15.70;;;;;;;5.47;100.00;100739.80;105810;1251;63305;-75
2024/03/27 04:19:34;;;;;;;19.60;15.50;;;;;;;5.53;100.00;100742.88;106029;1256;72657;-76
2024/03/27 04:22:01;;;;;;;20.10;15.70;;;;;;;5.61;100.00;100751.41;106896;1250;61669;-73
2024/03/27 04:24:29;;;;;;;20.20;15.10;;;;;;;5.68;100.00;100754.81;106983;1251;60462;-74
2024/03/27 04:26:56;;;;;;;18.60;15.60;;;;;;;5.69;100.00;100756.32;105855;1254;73865;-74
2024/03/27 04:29:24;;;;;;;18.80;13.90;;;;;;;5.69;100.00;100758.92;105854;1251;62680;-76
2024/03/27 04:31:51;;;;;;;19.00;14.80;;;;;;;5.76;100.00;100757.79;105979;1254;71396;-75
2024/03/27 04:34:19;;;;;;;23.30;15.70;;;;;;;5.80;100.00;100759.90;105786;1258;61756;-74
2024/03/27 04:36:46;;;;;;;19.30;14.90;;;;;;;5.81;100.00;100762.30;105731;1252;60358;-76
2024/03/27 04:39:13;;;;;;;18.70;15.10;;;;;;;5.85;100.00;100765.79;105937;1256;72882;-74
2024/03/27 04:41:42;;;;;;;18.30;15.40;;;;;;;5.87;100.00;100766.75;105793;1251;62851;-75
2024/03/27 04:44:09;;;;;;;20.30;15.70;;;;;;;5.88;100.00;100772.48;105929;1256;73409;-74
2024/03/27 04:46:37;;;;;;;18.90;14.30;;;;;;;5.90;100.00;100781.73;105943;1251;60507;-74
2024/03/27 04:49:05;;;;;;;19.10;14.90;;;;;;;5.98;100.00;100784.42;105700;1251;60374;-75
2024/03/27 04:51:33;;;;;;;17.10;14.50;;;;;;;6.03;100.00;100790.13;105767;1256;72479;-76
2024/03/27 04:54:00;;;;;;;20.70;15.80;;;;;;;6.06;100.00;100796.77;105787;1256;62665;-74
2024/03/27 04:56:27;;;;;;;23.20;16.40;;;;;;;6.10;100.00;100801.84;105676;1254;71209;-75
2024/03/27 04:58:55;;;;;;;18.10;13.90;;;;;;;6.13;100.00;100805.55;105693;1256;60716;-73
2024/03/27 05:01:23;;;;;;;18.00;14.60;;;;;;;6.11;100.00;100809.27;105782;1256;60342;-75
2024/03/27 05:03:50;;;;;;;23.90;16.50;;;;;;;6.07;100.00;100812.21;105649;1252;73894;-76
2024/03/27 05:06:17;;;;;;;22.00;16.40;;;;;;;6.04;100.00;100814.19;105674;1251;62949;-76
2024/03/27 05:08:45;;;;;;;20.60;15.80;;;;;;;6.03;100.00;100812.33;105817;1254;71537;-74
2024/03/27 05:11:12;;;;;;;22.60;16.00;;;;;;;6.06;100.00;100815.00;105756;1251;61658;-76
2024/03/27 05:13:40;;;;;;;18.50;15.10;;;;;;;6.12;100.00;100817.73;105836;1256;60447;-75
2024/03/27 05:16:07;;;;;;;23.50;16.90;;;;;;;6.14;100.00;100816.94;105767;1251;73877;-75
2024/03/27 05:18:37;;;;;;;22.00;15.80;;;;;;;6.19;100.00;100819.52;105730;1251;62271;-74
2024/03/27 05:21:06;;;;;;;25.80;17.50;;;;;;;6.27;100.00;100817.85;105797;1256;73216;-74
2024/03/27 05:23:34;;;;;;;25.60;17.70;;;;;;;6.35;100.00;100827.09;105886;1253;60665;-75
2024/03/27 05:26:03;;;;;;;25.10;19.30;;;;;;;6.42;100.00;100828.20;105752;1256;62830;-75
2024/03/27 05:28:34;;;;;;;23.90;17.30;;;;;;;6.47;100.00;100825.75;105787;1253;73829;-74
2024/03/27 05:31:01;;;;;;;22.80;18.70;;;;;;;6.49;100.00;100824.80;105866;1257;63768;-76
2024/03/27 05:33:28;;;;;;;26.10;18.90;;;;;;;6.47;100.00;100832.53;105944;1257;72630;-74
2024/03/27 05:35:56;;;;;;;24.50;19.70;;;;;;;6.46;100.00;100833.06;105704;1253;60684;-74
2024/03/27 05:38:36;;;;;;;26.40;18.10;;;;;;;6.45;100.00;100827.91;105798;1251;60342;-76
2024/03/27 05:41:04;;;;;;;29.30;20.90;;;;;;;6.45;100.00;100829.11;105727;1254;74154;-74
2024/03/27 05:43:31;;;;;;;26.90;18.80;;;;;;;6.47;100.00;100828.52;105799;1251;64025;-76
2024/03/27 05:45:59;;;;;;;27.20;19.90;;;;;;;6.53;100.00;100831.23;105813;1256;73072;-76
2024/03/27 05:48:28;;;;;;;25.10;19.30;;;;;;;6.59;100.00;100831.84;105979;1253;61783;-76
2024/03/27 05:50:56;;;;;;;26.80;18.90;;;;;;;6.68;100.00;100836.90;105917;1256;60320;-75
2024/03/27 05:53:24;;;;;;;26.40;18.60;;;;;;;6.74;100.00;100835.96;105937;1254;72841;-75
2024/03/27 05:55:57;;;;;;;26.90;17.90;;;;;;;6.79;100.00;100832.96;105801;1254;64188;-75
2024/03/27 05:58:26;;;;;;;28.90;19.70;;;;;;;6.85;100.00;100826.98;105915;1256;72719;-76
2024/03/27 06:00:55;;;;;;;26.00;19.10;;;;;;;6.95;100.00;100825.88;105801;1251;61726;-76
2024/03/27 06:03:22;;;;;;;28.20;20.00;;;;;;;7.03;100.00;100826.42;105700;1251;60940;-74
2024/03/27 06:05:50;;;;;;;25.70;20.60;;;;;;;7.08;100.00;100827.42;105651;1252;72511;-75
2024/03/27 06:08:17;;;;;;;30.00;19.90;;;;;;;7.12;100.00;100831.08;105653;1253;62619;-74
2024/03/27 06:10:47;;;;;;;30.10;19.90;;;;;;;7.12;100.00;100831.98;105651;1254;75629;-74
2024/03/27 06:13:15;;;;;;;27.30;18.40;;;;;;;7.06;100.00;100832.72;105710;1256;60802;-75
2024/03/27 06:15:43;;;;;;;24.80;18.20;;;;;;;7.05;100.00;100839.89;105820;1252;60369;-77
2024/03/27 06:18:10;;;;;;;25.10;20.00;;;;;;;7.08;100.00;100845.15;105913;1251;72696;-76
2024/03/27 06:20:37;;;;;;;30.00;19.90;;;;;;;7.13;100.00;100849.30;105841;1256;63538;-77
2024/03/27 06:23:05;;;;;;;27.60;19.20;;;;;;;7.18;100.00;100851.34;105665;1256;72787;-76
2024/03/27 06:25:33;;;;;;;26.20;19.70;;;;;;;7.24;100.00;100855.12;105760;1254;60786;-76
2024/03/27 06:28:01;;;;;;;27.10;19.50;;;;;;;7.33;100.00;100858.02;105771;1256;60371;-76
2024/03/27 06:30:28;;;;;;;23.60;17.50;;;;;;;7.41;100.00;100861.86;105729;1254;73864;-75
2024/03/27 06:32:55;;;;;;;27.50;19.40;;;;;;;7.46;100.00;100860.77;105763;1254;62843;-76
2024/03/27 06:35:22;;;;;;;28.20;19.00;;;;;;;7.46;100.00;100866.48;105783;1251;73332;-75
2024/03/27 06:37:50;;;;;;;26.70;19.90;;;;;;;7.46;100.00;100869.62;105790;1254;61673;-75
2024/03/27 06:40:17;;;;;;;27.40;19.80;;;;;;;7.50;100.00;100873.66;105806;1252;61218;-75
2024/03/27 06:42:44;;;;;;;25.40;19.80;;;;;;;7.57;100.00;100881.33;105745;1256;73363;-73
2024/03/27 06:45:12;;;;;;;29.70;20.90;;;;;;;7.64;100.00;100883.48;105736;1256;63621;-75
2024/03/27 06:47:48;;;;;;;28.70;20.90;;;;;;;7.67;100.00;100896.71;105763;1254;72718;-74
2024/03/27 06:50:15;;;;;;;30.00;20.20;;;;;;;7.68;100.00;100891.30;105864;1253;61610;-75
2024/03/27 06:52:43;;;;;;;28.80;20.90;;;;;;;7.74;100.00;100886.70;105899;1256;61202;-75
2024/03/27 06:55:10;;;;;;;26.10;18.50;;;;;;;7.81;100.00;100887.60;105746;1252;73371;-75
2024/03/27 06:57:38;;;;;;;28.10;19.00;;;;;;;7.83;100.00;100892.90;105819;1257;62238;-75
2024/03/27 07:00:09;;;;;;;25.30;18.10;;;;;;;7.81;100.00;100899.95;105857;1254;71535;-73
2024/03/27 07:02:37;;;;;;;29.10;19.30;;;;;;;7.76;100.00;100900.38;105727;1254;62341;-75
2024/03/27 07:05:07;;;;;;;24.30;18.60;;;;;;;7.75;100.00;100894.12;105802;1254;61168;-76
2024/03/27 07:07:34;;;;;;;28.40;19.10;;;;;;;7.76;100.00;100894.11;105984;1256;74943;-75
2024/03/27 07:10:02;;;;;;;29.30;19.90;;;;;;;7.72;100.00;100896.89;105714;1254;62465;-75
2024/03/27 07:12:29;;;;;;;25.60;19.50;;;;;;;7.66;100.00;100903.20;105640;1253;74138;-76
2024/03/27 07:14:57;;;;;;;30.70;22.70;;;;;;;7.64;100.00;100904.36;105808;1256;61403;-74
2024/03/27 07:17:24;;;;;;;30.80;21.90;;;;;;;7.65;100.00;100911.11;105707;1256;61887;-75
2024/03/27 07:19:53;;;;;;;29.40;20.00;;;;;;;7.68;100.00;100912.16;105720;1251;74834;-74
2024/03/27 07:22:21;;;;;;;23.60;17.20;;;;;;;7.75;100.00;100913.81;105832;1256;62848;-74
2024/03/27 07:24:50;;;;;;;26.00;19.00;;;;;;;7.72;100.00;100916.72;105864;1252;74825;-75
2024/03/27 07:27:18;;;;;;;25.00;18.30;;;;;;;7.65;100.00;100915.60;105883;1256;61472;-75
2024/03/27 07:29:45;;;;;;;29.10;20.10;;;;;;;7.63;100.00;100919.20;105823;1251;61310;-73
2024/03/27 07:32:13;;;;;;;32.30;21.50;;;;;;;7.64;100.00;100918.09;105888;1251;74379;-76
2024/03/27 07:34:40;;;;;;;35.40;22.80;;;;;;;7.63;100.00;100915.70;105925;1251;64018;-76
2024/03/27 07:37:07;;;;;;;30.80;22.70;;;;;;;7.61;100.00;100922.90;105700;1256;73306;-76
2024/03/27 07:39:35;;;;;;;25.90;19.80;;;;;;;7.61;100.00;100927.44;105725;1251;61478;-76
2024/03/27 07:42:03;;;;;;;29.50;20.50;;;;;;;7.65;100.00;100929.90;105843;1256;61289;-75
2024/03/27 07:44:30;;;;;;;28.90;21.20;;;;;;;7.64;100.00;100925.05;105659;1251;74434;-75
2024/03/27 07:46:57;;;;;;;32.00;22.40;;;;;;;7.64;100.00;100925.23;105689;1256;64033;-76
2024/03/27 07:49:25;;;;;;;30.90;21.10;;;;;;;7.68;100.00;100919.86;105737;1256;72711;-75
2024/03/27 07:51:52;;;;;;;28.40;21.20;;;;;;;7.70;100.00;100919.59;105783;1254;61336;-75
2024/03/27 07:54:20;;;;;;;33.20;21.90;;;;;;;7.68;100.00;100915.13;105877;1251;61317;-77
2024/03/27 07:56:48;;;;;;;30.00;21.30;;;;;;;7.66;100.00;100918.52;105718;1258;73972;-76
2024/03/27 07:59:15;;;;;;;26.20;19.80;;;;;;;7.67;100.00;100922.13;105840;1257;66382;-74
2024/03/27 08:01:42;;;;;;;27.60;20.20;;;;;;;7.73;100.00;100928.52;105825;1254;73729;-74
2024/03/27 08:04:10;;;;;;;27.70;20.10;;;;;;;7.76;100.00;100928.38;105860;1256;61321;-77
2024/03/27 08:06:37;;;;;;;31.00;21.80;;;;;;;7.81;100.00;100921.90;105864;1251;61337;-75
2024/03/27 08:09:08;;;;;;;31.20;21.40;;;;;;;7.88;100.00;100919.33;105748;1257;75374;-76
2024/03/27 08:11:35;;;;;;;27.50;20.50;;;;;;;7.90;100.00;100919.61;105724;1254;62523;-75
2024/03/27 08:14:06;;;;;;;27.40;20.00;;;;;;;7.85;100.00;100922.76;105913;1257;73083;-75
2024/03/27 08:16:35;;;;;;;31.30;21.70;;;;;;;7.87;100.00;100920.40;105764;1256;61322;-74
2024/03/27 08:19:02;;;;;;;33.30;23.00;;;;;;;7.84;100.00;100921.20;105779;1253;61356;-75
2024/03/27 08:21:30;;;;;;;36.40;23.70;;;;;;;7.80;100.00;100918.29;105875;1256;75129;-75
2024/03/27 08:23:58;;;;;;;30.80;23.30;;;;;;;7.75;100.00;100921.12;105921;1256;62710;-75
2024/03/27 08:26:26;;;;;;;32.40;23.80;;;;;;;7.73;100.00;100924.48;105768;1254;74229;-77
2024/03/27 08:28:54;;;;;;;37.00;25.20;;;;;;;7.77;100.00;100925.53;105785;1253;61247;-77
2024/03/27 08:31:22;;;;;;;30.10;23.60;;;;;;;7.83;100.00;100926.17;105806;1254;61288;-77
2024/03/27 08:33:49;;;;;;;33.40;25.30;;;;;;;7.87;100.00;100922.48;105800;1254;73518;-77
2024/03/27 08:36:16;;;;;;;31.40;22.80;;;;;;;7.93;100.00;100920.17;105842;1257;64520;-76
2024/03/27 08:38:53;;;;;;;32.50;21.30;;;;;;;7.99;100.00;100927.04;105824;1251;72575;-76
2024/03/27 08:41:20;;;;;;;27.80;21.10;;;;;;;8.03;100.00;100935.04;105788;1251;61256;-77
2024/03/27 08:43:48;;;;;;;23.50;17.90;;;;;;;8.06;100.00;100940.47;105729;1251;61243;-76
2024/03/27 08:46:15;;;;;;;23.20;17.90;;;;;;;8.05;100.00;100945.53;105669;1251;74276;-76
2024/03/27 08:48:43;;;;;;;23.30;17.90;;;;;;;8.04;100.00;100946.45;105968;1252;61553;-76
2024/03/27 08:51:10;;;;;;;23.20;18.70;;;;;;;8.03;100.00;100947.38;105954;1256;72045;-76
2024/03/27 08:53:38;;;;;;;27.30;19.30;;;;;;;8.07;100.00;100949.64;105811;1256;61522;-77
2024/03/27 08:56:09;;;;;;;27.40;19.40;;;;;;;8.15;100.00;100948.98;105745;1253;61346;-77
2024/03/27 08:58:37;;;;;;;24.00;19.10;;;;;;;8.21;100.00;100949.39;105745;1256;74478;-77
2024/03/27 09:01:04;;;;;;;24.40;19.70;;;;;;;8.25;100.00;100949.55;105689;1254;66415;-76
2024/03/27 09:03:31;;;;;;;25.70;21.00;;;;;;;8.31;100.00;100946.48;105903;1257;75582;-75
2024/03/27 09:05:58;;;;;;;27.50;21.00;;;;;;;8.40;100.00;100947.13;105716;1254;61968;-76
2024/03/27 09:08:26;;;;;;;26.60;20.70;;;;;;;8.52;100.00;100947.30;105726;1256;61164;-76
2024/03/27 09:10:53;;;;;;;24.30;20.60;;;;;;;8.62;100.00;100951.70;105806;1256;77508;-76
2024/03/27 09:13:20;;;;;;;23.50;19.50;;;;;;;8.65;100.00;100945.80;105797;1256;62417;-75
2024/03/27 09:15:48;;;;;;;25.90;20.00;;;;;;;8.64;100.00;100945.33;105939;1253;72965;-76
2024/03/27 09:18:15;;;;;;;27.10;19.90;;;;;;;8.67;100.00;100939.80;105683;1254;62625;-78
2024/03/27 09:20:43;;;;;;;29.30;19.80;;;;;;;8.79;100.00;100938.05;105773;1254;62197;-74
2024/03/27 09:23:13;;;;;;;24.80;20.40;;;;;;;8.95;100.00;100940.20;105739;1251;74821;-75
2024/03/27 09:25:40;;;;;;;30.30;21.50;;;;;;;9.07;100.00;100938.58;105767;1253;64183;-74
2024/03/27 09:28:09;;;;;;;24.90;18.70;;;;;;;9.20;100.00;100943.03;105868;1256;73155;-76
2024/03/27 09:30:37;;;;;;;22.60;18.10;;;;;;;9.36;100.00;100942.09;105873;1257;62940;-75
2024/03/27 09:33:04;;;;;;;24.10;18.40;;;;;;;9.49;100.00;100939.49;105773;1251;61330;-76
2024/03/27 09:35:32;;;;;;;21.80;18.20;;;;;;;9.58;100.00;100940.99;105870;1256;75465;-77
2024/03/27 09:38:00;;;;;;;23.50;18.90;;;;;;;9.71;100.00;100935.23;105805;1256;66089;-76
2024/03/27 09:40:28;;;;;;;22.10;17.60;;;;;;;9.94;100.00;100933.38;105715;1254;73798;-76
2024/03/27 09:42:55;;;;;;;23.30;19.40;;;;;;;10.24;100.00;100937.55;105442;1259;63245;-77
2024/03/27 09:45:23;;;;;;;18.60;15.80;;;;;;;10.67;100.00;100933.33;105776;1251;61131;-75
2024/03/27 09:47:51;;;;;;;18.00;15.10;;;;;;;11.33;100.00;100935.70;105663;1254;73173;-75
2024/03/27 09:50:21;;;;;;;19.20;15.40;;;;;;;12.00;100.00;100936.45;105858;1257;63904;-78
2024/03/27 09:52:49;;;;;;;17.40;15.10;;;;;;;12.58;100.00;100935.67;105769;1256;73201;-76
2024/03/27 09:55:16;;;;;;;16.60;14.90;;;;;;;12.95;100.00;100939.11;105864;1253;61313;-76
2024/03/27 09:57:44;;;;;;;16.00;14.30;;;;;;;13.28;100.00;100940.16;105656;1259;61250;-75
2024/03/27 10:00:11;;;;;;;15.50;13.50;;;;;;;13.63;100.00;100937.98;105648;1251;73882;-77
2024/03/27 10:02:39;;;;;;;17.10;14.40;;;;;;;14.00;100.00;100938.29;105723;1251;62197;-77
2024/03/27 10:05:09;;;;;;;15.30;13.70;;;;;;;14.46;100.00;100943.73;105827;1257;72412;-75
2024/03/27 10:07:37;;;;;;;14.90;13.40;;;;;;;14.94;100.00;100936.18;105845;1256;61256;-74
2024/03/27 10:10:05;;;;;;;17.10;13.80;;;;;;;15.41;100.00;100932.75;106087;1256;61304;-76
2024/03/27 10:12:33;;;;;;;15.40;13.70;;;;;;;15.94;100.00;100927.84;107502;1251;74427;-77
2024/03/27 10:15:02;;;;;;;21.30;13.60;;;;;;;16.52;98.55;100925.20;109333;1251;64006;-77
2024/03/27 10:17:31;;;;;;;13.60;12.40;;;;;;;17.07;90.65;100931.52;108511;1257;71870;-75
2024/03/27 10:19:58;;;;;;;15.80;13.40;;;;;;;17.46;83.61;100932.92;105845;1253;61952;-78
2024/03/27 10:22:26;;;;;;;18.10;14.70;;;;;;;17.72;78.68;100924.16;105759;1257;61125;-78
2024/03/27 10:24:53;;;;;;;15.20;13.60;;;;;;;18.04;72.30;100923.95;105837;1252;74435;-77
2024/03/27 10:27:21;;;;;;;14.90;13.20;;;;;;;18.41;68.98;100928.50;105829;1256;65979;-77
2024/03/27 10:29:49;;;;;;;14.50;13.00;;;;;;;18.75;66.30;100926.33;105883;1252;72471;-77
2024/03/27 10:32:17;;;;;;;13.40;12.10;;;;;;;19.11;63.63;100926.48;105988;1251;61237;-77
2024/03/27 10:34:47;;;;;;;12.50;11.30;;;;;;;19.47;60.85;100924.80;105801;1256;61233;-79
2024/03/27 10:37:32;;;;;;;15.10;12.40;;;;;;;19.76;56.33;100917.29;105979;1251;74451;-77
2024/03/27 10:40:01;;;;;;;13.70;11.40;;;;;;;19.81;53.99;100912.44;105772;1256;62771;-76
2024/03/27 10:42:29;;;;;;;13.90;12.50;;;;;;;19.77;53.86;100911.41;105782;1254;72011;-74
2024/03/27 10:44:58;;;;;;;12.40;11.20;;;;;;;19.75;52.84;100909.83;105748;1259;61183;-76
2024/03/27 10:47:32;;;;;;;12.50;10.90;;;;;;;19.67;53.42;100905.54;105778;1251;61342;-76
2024/03/27 10:50:03;;;;;;;15.80;11.80;;;;;;;19.65;53.66;100903.22;105816;1256;76093;-76
2024/03/27 10:52:32;;;;;;;13.60;12.10;;;;;;;19.93;52.78;100905.09;105888;1256;65556;-77
2024/03/27 10:55:01;;;;;;;12.40;11.20;;;;;;;20.12;50.64;100904.86;105813;1258;72880;-77
2024/03/27 10:57:28;;;;;;;12.10;10.90;;;;;;;20.05;50.23;100906.55;105899;1256;61375;-78
2024/03/27 10:59:56;;;;;;;18.50;10.80;;;;;;;20.02;51.23;100905.77;105826;1251;61330;-76
2024/03/27 11:02:23;;;;;;;12.90;11.50;;;;;;;20.00;49.85;100905.25;105758;1256;74899;-76
2024/03/27 11:04:59;;;;;;;13.50;11.20;;;;;;;19.97;50.26;100902.77;106004;1257;65265;-78
2024/03/27 11:07:33;;;;;;;13.00;11.80;;;;;;;19.96;49.99;100905.71;105828;1251;73495;-79
2024/03/27 11:10:01;;;;;;;12.80;10.80;;;;;;;20.18;49.81;100899.67;105698;1256;62910;-75